createdAt,value
2023-05-23T00:02:02.156Z,13.01
2023-05-23T00:04:29.614Z,12.76
2023-05-23T00:06:56.727Z,12.76
2023-05-23T00:09:23.967Z,12.78
2023-05-23T00:11:50.957Z,12.73
2023-05-23T00:14:23.981Z,13.01
2023-05-23T00:16:51.898Z,12.99
2023-05-23T00:19:19.079Z,12.54
2023-05-23T00:21:48.921Z,12.77
2023-05-23T00:24:18.989Z,12.21
2023-05-23T00:26:47.431Z,12.53
2023-05-23T00:29:18.334Z,12.76
2023-05-23T00:31:49.220Z,12.84
2023-05-23T00:34:19.836Z,12.88
2023-05-23T00:36:50.631Z,12.31
2023-05-23T00:39:21.338Z,12.51
2023-05-23T00:41:53.433Z,12.24
2023-05-23T00:44:22.053Z,12.58
2023-05-23T00:46:57.592Z,12.62
2023-05-23T00:49:28.333Z,12.28
2023-05-23T00:51:55.758Z,12.22
2023-05-23T00:54:28.784Z,11.81
2023-05-23T00:56:56.393Z,12.36
2023-05-23T00:59:28.574Z,12.23
2023-05-23T01:01:58.252Z,12.01
2023-05-23T01:04:27.229Z,12.38
2023-05-23T01:06:58.014Z,12.27
2023-05-23T01:09:27.490Z,11.81
2023-05-23T01:12:20.838Z,11.93
2023-05-23T01:14:56.625Z,12.31
2023-05-23T01:17:42.357Z,11.51
2023-05-23T01:20:17.308Z,11.92
2023-05-23T01:23:03.035Z,12.27
2023-05-23T01:25:59.557Z,12.27
2023-05-23T01:28:33.807Z,12.25
2023-05-23T01:31:04.148Z,11.68
2023-05-23T01:33:32.782Z,11.77
2023-05-23T01:36:05.434Z,12.23
2023-05-23T01:38:32.653Z,12.21
2023-05-23T01:41:00.555Z,11.44
2023-05-23T01:43:31.905Z,12.28
2023-05-23T01:46:01.075Z,12.37
2023-05-23T01:48:29.566Z,12.42
2023-05-23T01:50:59.276Z,12.12
2023-05-23T01:53:31.658Z,12.20
2023-05-23T01:55:59.063Z,12.18
2023-05-23T01:58:26.802Z,12.14
2023-05-23T02:00:54.050Z,11.75
2023-05-23T02:03:21.263Z,12.24
2023-05-23T02:05:49.710Z,11.71
2023-05-23T02:08:17.368Z,11.80
2023-05-23T02:10:44.457Z,12.24
2023-05-23T02:13:11.499Z,12.22
2023-05-23T02:15:38.800Z,12.23
2023-05-23T02:18:06.718Z,12.35
2023-05-23T02:20:33.997Z,12.24
2023-05-23T02:23:01.360Z,12.01
2023-05-23T02:25:28.465Z,12.32
2023-05-23T02:27:55.521Z,12.14
2023-05-23T02:30:22.546Z,11.91
2023-05-23T02:32:50.141Z,12.02
2023-05-23T02:35:17.436Z,11.98
2023-05-23T02:37:44.597Z,12.16
2023-05-23T02:40:12.419Z,12.18
2023-05-23T02:42:39.564Z,12.18
2023-05-23T02:45:07.831Z,11.85
2023-05-23T02:47:35.186Z,12.33
2023-05-23T02:50:02.629Z,12.25
2023-05-23T02:52:29.821Z,12.03
2023-05-23T02:54:56.888Z,12.22
2023-05-23T02:57:24.289Z,11.59
2023-05-23T02:59:51.557Z,12.04
2023-05-23T03:02:18.784Z,12.11
2023-05-23T03:04:46.561Z,12.32
2023-05-23T03:07:27.675Z,12.38
2023-05-23T03:09:56.466Z,12.11
2023-05-23T03:12:23.587Z,12.12
2023-05-23T03:14:50.686Z,12.14
2023-05-23T03:17:17.696Z,11.85
2023-05-23T03:19:44.691Z,11.91
2023-05-23T03:22:11.702Z,11.97
2023-05-23T03:24:38.695Z,11.98
2023-05-23T03:27:05.905Z,12.39
2023-05-23T03:29:32.980Z,11.72
2023-05-23T03:32:00.150Z,11.65
2023-05-23T03:34:27.383Z,12.08
2023-05-23T03:36:54.465Z,11.94
2023-05-23T03:39:21.476Z,12.21
2023-05-23T03:41:48.855Z,11.83
2023-05-23T03:44:16.557Z,12.22
2023-05-23T03:46:43.670Z,12.00
2023-05-23T03:49:10.847Z,12.34
2023-05-23T03:51:37.864Z,12.08
2023-05-23T03:54:05.012Z,12.31
2023-05-23T03:56:32.167Z,12.17
2023-05-23T03:58:59.261Z,12.27
2023-05-23T04:01:26.545Z,11.71
2023-05-23T04:03:54.576Z,12.05
2023-05-23T04:06:23.354Z,12.23
2023-05-23T04:08:50.924Z,11.35
2023-05-23T04:11:18.996Z,11.84
2023-05-23T04:13:47.357Z,11.93
2023-05-23T04:16:14.642Z,11.74
2023-05-23T04:18:41.968Z,11.96
2023-05-23T04:21:09.359Z,11.89
2023-05-23T04:23:42.143Z,10.93
2023-05-23T04:26:10.458Z,12.28
2023-05-23T04:28:46.341Z,12.19
2023-05-23T04:31:14.031Z,11.89
2023-05-23T04:33:43.014Z,10.95
2023-05-23T04:36:10.740Z,11.85
2023-05-23T04:38:41.366Z,11.63
2023-05-23T04:41:12.147Z,12.00
2023-05-23T04:43:58.646Z,11.72
2023-05-23T04:46:32.935Z,11.49
2023-05-23T04:49:10.289Z,11.73
2023-05-23T04:51:38.443Z,11.51
2023-05-23T04:54:23.966Z,11.89
2023-05-23T04:56:51.526Z,11.87
2023-05-23T04:59:20.633Z,11.42
2023-05-23T05:01:47.645Z,12.02
2023-05-23T05:04:15.726Z,11.83
2023-05-23T05:06:43.078Z,12.08
2023-05-23T05:09:10.250Z,12.44
2023-05-23T05:11:37.434Z,11.91
2023-05-23T05:14:04.451Z,12.31
2023-05-23T05:16:31.933Z,12.46
2023-05-23T05:19:00.594Z,12.54
2023-05-23T05:21:27.867Z,12.54
2023-05-23T05:23:55.139Z,12.36
2023-05-23T05:26:23.544Z,12.28
2023-05-23T05:28:51.963Z,12.27
2023-05-23T05:31:20.015Z,12.41
2023-05-23T05:33:47.652Z,12.63
2023-05-23T05:36:16.254Z,12.74
2023-05-23T05:38:44.107Z,12.40
2023-05-23T05:41:11.373Z,12.19
2023-05-23T05:43:46.859Z,12.18
2023-05-23T05:46:14.723Z,12.59
2023-05-23T05:48:41.837Z,12.82
2023-05-23T05:51:11.896Z,12.76
2023-05-23T05:53:40.653Z,12.85
2023-05-23T05:56:09.563Z,12.49
2023-05-23T05:58:38.951Z,12.94
2023-05-23T06:01:11.069Z,12.97
2023-05-23T06:03:38.274Z,12.80
2023-05-23T06:06:05.530Z,12.73
2023-05-23T06:08:32.711Z,13.07
2023-05-23T06:11:03.822Z,13.13
2023-05-23T06:13:32.095Z,13.04
2023-05-23T06:16:00.174Z,12.94
2023-05-23T06:18:27.269Z,13.33
2023-05-23T06:57:41.448Z,14.28
2023-05-23T07:00:09.373Z,14.34
2023-05-23T07:02:46.011Z,13.89
2023-05-23T07:05:13.422Z,14.28
2023-05-23T07:07:48.700Z,13.44
2023-05-23T07:10:16.488Z,14.48
2023-05-23T07:12:46.663Z,14.46
2023-05-23T07:15:15.186Z,14.16
2023-05-23T07:17:53.843Z,14.52
2023-05-23T07:20:21.043Z,14.80
2023-05-23T07:22:51.733Z,14.83
2023-05-23T07:25:19.443Z,14.52
2023-05-23T07:27:46.690Z,14.53
2023-05-23T07:30:17.054Z,14.55
2023-05-23T07:32:44.789Z,14.72
2023-05-23T07:35:15.687Z,15.27
2023-05-23T07:37:43.870Z,15.19
2023-05-23T07:40:11.781Z,15.11
2023-05-23T07:42:38.828Z,15.56
2023-05-23T07:45:06.405Z,15.68
2023-05-23T07:47:33.988Z,15.68
2023-05-23T07:50:02.513Z,15.42
2023-05-23T07:52:33.031Z,15.45
2023-05-23T07:55:07.503Z,15.89
2023-05-23T07:57:37.984Z,15.64
2023-05-23T08:00:07.294Z,15.91
2023-05-23T08:02:42.172Z,15.69
2023-05-23T08:05:16.288Z,15.63
2023-05-23T08:07:43.547Z,15.40
2023-05-23T08:10:11.313Z,15.92
2023-05-23T08:12:39.267Z,15.76
2023-05-23T08:15:11.842Z,15.98
2023-05-23T08:17:53.814Z,16.08
2023-05-23T08:20:21.859Z,16.02
2023-05-23T08:22:49.018Z,15.99
2023-05-23T08:25:16.169Z,15.92
2023-05-23T08:27:43.304Z,15.89
2023-05-23T08:30:25.867Z,15.87
2023-05-23T08:32:55.687Z,16.04
2023-05-23T08:35:23.263Z,15.90
2023-05-23T08:37:51.071Z,15.48
2023-05-23T08:40:22.981Z,15.79
2023-05-23T08:42:58.146Z,15.59
2023-05-23T08:45:26.223Z,15.72
2023-05-23T08:47:56.265Z,15.49
2023-05-23T08:50:28.581Z,15.52
2023-05-23T08:52:57.597Z,15.70
2023-05-23T08:55:27.985Z,15.92
2023-05-23T08:57:58.036Z,15.95
2023-05-23T09:00:35.771Z,15.69
2023-05-23T09:03:03.566Z,15.69
2023-05-23T09:05:57.950Z,15.92
2023-05-23T09:08:25.729Z,15.73
2023-05-23T09:10:57.116Z,15.85
2023-05-23T09:13:26.050Z,15.49
2023-05-23T09:16:04.808Z,15.15
2023-05-23T09:18:43.037Z,15.39
2023-05-23T09:21:18.608Z,15.60
2023-05-23T09:24:15.181Z,15.24
2023-05-23T09:26:42.337Z,14.94
2023-05-23T09:29:09.431Z,15.00
2023-05-23T09:31:36.615Z,14.80
2023-05-23T09:34:04.172Z,15.42
2023-05-23T09:36:33.829Z,15.11
2023-05-23T09:39:05.853Z,15.26
2023-05-23T09:41:36.054Z,14.78
2023-05-23T09:44:09.335Z,15.36
2023-05-23T09:46:38.634Z,15.13
2023-05-23T09:49:18.586Z,15.18
2023-05-23T09:52:01.430Z,15.48
2023-05-23T09:54:28.600Z,15.38
2023-05-23T09:57:01.592Z,15.39
2023-05-23T09:59:31.687Z,15.19
2023-05-23T10:02:00.913Z,15.41
2023-05-23T10:04:34.581Z,14.87
2023-05-23T10:07:10.161Z,14.83
2023-05-23T10:09:40.206Z,15.44
2023-05-23T10:12:37.139Z,15.58
2023-05-23T10:21:50.836Z,15.45
2023-05-23T10:24:19.037Z,15.23
2023-05-23T10:26:46.665Z,15.16
2023-05-23T10:29:13.662Z,15.46
2023-05-23T10:31:41.627Z,15.55
2023-05-23T10:34:14.371Z,15.64
2023-05-23T10:36:53.588Z,15.25
2023-05-23T10:39:37.313Z,15.71
2023-05-23T10:42:15.856Z,15.69
2023-05-23T10:44:42.874Z,15.77
2023-05-23T10:47:09.977Z,15.57
2023-05-23T10:49:44.380Z,15.70
2023-05-23T10:52:17.367Z,15.54
2023-05-23T10:54:48.079Z,15.41
2023-05-23T10:57:23.462Z,15.71
2023-05-23T10:59:52.078Z,15.42
2023-05-23T11:02:25.566Z,15.68
2023-05-23T11:05:31.974Z,15.93
2023-05-23T11:08:18.202Z,15.71
2023-05-23T11:11:01.345Z,16.04
2023-05-23T11:13:53.056Z,16.01
2023-05-23T11:16:31.503Z,16.23
2023-05-23T11:19:18.528Z,16.15
2023-05-23T11:21:47.033Z,16.38
2023-05-23T11:24:14.019Z,16.57
2023-05-23T11:26:41.091Z,16.50
2023-05-23T11:29:11.114Z,15.95
2023-05-23T11:31:39.061Z,17.02
2023-05-23T11:34:07.341Z,17.23
2023-05-23T11:36:35.765Z,17.32
2023-05-23T11:39:04.525Z,17.26
2023-05-23T11:41:31.966Z,17.38
2023-05-23T11:43:59.925Z,17.55
2023-05-23T11:46:27.525Z,17.78
2023-05-23T11:48:55.024Z,17.80
2023-05-23T11:51:22.326Z,17.90
2023-05-23T11:53:49.419Z,17.49
2023-05-23T11:56:16.890Z,17.77
2023-05-23T11:58:45.468Z,17.17
2023-05-23T12:01:14.024Z,17.19
2023-05-23T12:03:51.604Z,17.72
2023-05-23T12:06:23.732Z,17.93
2023-05-23T12:08:52.792Z,17.63
2023-05-23T12:11:20.047Z,17.54
2023-05-23T12:13:47.174Z,18.01
2023-05-23T12:16:16.020Z,18.26
2023-05-23T12:18:43.834Z,18.32
2023-05-23T12:21:11.476Z,18.21
2023-05-23T12:23:40.017Z,18.63
2023-05-23T12:26:08.038Z,18.57
2023-05-23T12:28:45.563Z,18.89
2023-05-23T12:31:17.229Z,18.98
2023-05-23T12:33:46.178Z,18.72
2023-05-23T12:36:13.362Z,18.62
2023-05-23T12:38:45.542Z,18.69
2023-05-23T12:41:16.679Z,18.79
2023-05-23T12:43:51.915Z,18.75
2023-05-23T12:46:23.390Z,18.89
2023-05-23T12:48:50.857Z,18.38
2023-05-23T12:51:18.048Z,18.74
2023-05-23T12:53:45.202Z,18.40
2023-05-23T12:56:12.624Z,18.28
2023-05-23T12:58:39.873Z,18.53
2023-05-23T13:01:06.962Z,18.40
2023-05-23T13:03:34.212Z,17.49
2023-05-23T13:06:01.408Z,18.08
2023-05-23T13:08:29.574Z,18.03
2023-05-23T13:10:57.511Z,17.96
2023-05-23T13:13:25.120Z,17.85
2023-05-23T13:15:52.321Z,17.55
2023-05-23T13:18:19.516Z,17.52
2023-05-23T13:20:46.928Z,17.80
2023-05-23T13:23:14.312Z,17.67
2023-05-23T13:25:41.652Z,17.70
2023-05-23T13:28:09.132Z,17.58
2023-05-23T13:30:36.377Z,17.77
2023-05-23T13:33:03.737Z,17.72
2023-05-23T13:35:31.059Z,17.52
2023-05-23T13:37:58.214Z,17.73
2023-05-23T13:40:25.403Z,17.16
2023-05-23T13:42:52.797Z,17.63
2023-05-23T13:45:22.820Z,17.65
2023-05-23T13:47:50.240Z,17.35
2023-05-23T13:50:17.448Z,17.34
2023-05-23T13:52:47.253Z,17.12
2023-05-23T13:55:16.762Z,17.34
2023-05-23T13:57:43.879Z,17.35
2023-05-23T14:00:11.830Z,17.30
2023-05-23T14:02:38.893Z,17.08
2023-05-23T14:05:07.528Z,17.20
2023-05-23T14:07:34.556Z,17.44
2023-05-23T14:10:01.590Z,17.37
2023-05-23T14:12:28.651Z,17.47
2023-05-23T14:14:55.727Z,17.56
2023-05-23T14:17:22.928Z,17.17
2023-05-23T14:19:50.747Z,17.54
2023-05-23T14:22:17.892Z,17.65
2023-05-23T14:24:45.000Z,17.40
2023-05-23T14:27:12.349Z,17.47
2023-05-23T14:29:39.654Z,17.38
2023-05-23T14:32:07.054Z,17.42
2023-05-23T14:34:34.352Z,17.40
2023-05-23T14:37:01.547Z,17.66
2023-05-23T14:39:29.310Z,17.73
2023-05-23T14:41:56.699Z,17.74
2023-05-23T14:44:23.989Z,17.99
2023-05-23T14:46:51.473Z,18.09
2023-05-23T14:49:18.588Z,18.35
2023-05-23T14:51:51.702Z,18.07
2023-05-23T14:54:22.634Z,18.31
2023-05-23T14:56:52.674Z,17.94
2023-05-23T14:59:20.502Z,18.47
2023-05-23T15:01:50.754Z,16.79
2023-05-23T15:04:17.977Z,18.47
2023-05-23T15:06:47.277Z,18.48
2023-05-23T15:09:14.637Z,18.19
2023-05-23T15:11:42.581Z,18.36
2023-05-23T15:14:09.768Z,18.32
2023-05-23T15:16:37.638Z,18.23
2023-05-23T15:19:06.088Z,18.10
2023-05-23T15:21:33.383Z,18.00
2023-05-23T15:24:00.766Z,17.95
2023-05-23T15:26:28.307Z,18.29
2023-05-23T15:28:55.448Z,18.08
2023-05-23T15:31:23.482Z,18.25
2023-05-23T15:33:50.599Z,17.64
2023-05-23T15:36:17.605Z,17.69
2023-05-23T15:38:45.006Z,18.23
2023-05-23T15:41:12.344Z,18.19
2023-05-23T15:43:39.806Z,17.69
2023-05-23T15:46:07.049Z,18.12
2023-05-23T15:48:34.319Z,17.89
2023-05-23T15:51:01.452Z,17.75
2023-05-23T15:53:30.590Z,17.46
2023-05-23T15:55:59.278Z,17.78
2023-05-23T15:58:26.525Z,17.43
2023-05-23T16:00:53.633Z,17.86
2023-05-23T16:03:20.788Z,17.83
2023-05-23T16:05:48.017Z,17.68
2023-05-23T16:08:15.193Z,17.23
2023-05-23T16:10:42.211Z,17.71
2023-05-23T16:13:09.558Z,17.26
2023-05-23T16:15:36.950Z,17.21
2023-05-23T16:18:04.677Z,16.99
2023-05-23T16:20:32.072Z,17.46
2023-05-23T16:22:59.319Z,17.04
2023-05-23T16:25:26.481Z,17.12
2023-05-23T16:27:53.522Z,17.15
2023-05-23T16:30:20.871Z,16.71
2023-05-23T16:32:48.005Z,16.75
2023-05-23T16:35:21.032Z,16.83
2023-05-23T16:37:48.084Z,16.71
2023-05-23T16:40:15.821Z,17.09
2023-05-23T16:42:44.774Z,17.08
2023-05-23T16:45:12.190Z,17.08
2023-05-23T16:47:39.534Z,17.00
2023-05-23T16:50:08.574Z,16.86
2023-05-23T16:52:38.691Z,16.71
2023-05-23T16:55:06.585Z,16.97
2023-05-23T16:57:33.626Z,16.63
2023-05-23T17:00:00.761Z,16.17
2023-05-23T17:02:27.824Z,16.65
2023-05-23T17:04:55.922Z,16.25
2023-05-23T17:07:23.731Z,16.54
2023-05-23T17:09:50.828Z,16.52
2023-05-23T17:12:18.001Z,16.01
2023-05-23T17:14:45.148Z,16.14
2023-05-23T17:17:12.176Z,16.29
2023-05-23T17:19:39.383Z,15.89
2023-05-23T17:22:07.749Z,15.82
2023-05-23T17:24:35.147Z,15.97
2023-05-23T17:27:03.902Z,15.98
2023-05-23T17:29:31.688Z,15.95
2023-05-23T17:31:59.013Z,15.77
2023-05-23T17:34:26.693Z,15.66
2023-05-23T17:36:53.862Z,15.47
2023-05-23T17:39:20.914Z,15.80
2023-05-23T17:41:47.924Z,15.28
2023-05-23T17:44:14.993Z,15.34
2023-05-23T17:46:42.241Z,15.01
2023-05-23T17:49:09.422Z,15.50
2023-05-23T17:51:39.565Z,15.35
2023-05-23T17:54:06.647Z,15.32
2023-05-23T17:56:36.989Z,14.75
2023-05-23T17:59:07.566Z,15.39
2023-05-23T18:01:34.710Z,15.35
2023-05-23T18:04:02.228Z,14.76
2023-05-23T18:06:29.321Z,15.08
2023-05-23T18:08:56.794Z,15.17
2023-05-23T18:11:24.526Z,15.32
2023-05-23T18:13:51.916Z,14.99
2023-05-23T18:16:19.174Z,15.11
2023-05-23T18:18:46.342Z,15.06
2023-05-23T18:21:13.502Z,14.89
2023-05-23T18:23:41.007Z,14.70
2023-05-23T18:26:09.177Z,14.50
2023-05-23T18:28:36.501Z,14.41
2023-05-23T18:31:03.750Z,14.64
2023-05-23T18:33:33.674Z,14.67
2023-05-23T18:36:01.587Z,14.58
2023-05-23T18:38:28.728Z,13.34
2023-05-23T18:40:55.912Z,14.60
2023-05-23T18:43:23.118Z,14.46
2023-05-23T18:45:50.281Z,14.07
2023-05-23T18:48:17.362Z,14.08
2023-05-23T18:50:44.794Z,14.52
2023-05-23T18:53:12.242Z,14.19
2023-05-23T18:55:39.243Z,14.09
2023-05-23T18:58:06.546Z,14.43
2023-05-23T19:00:33.644Z,14.38
2023-05-23T19:03:01.315Z,14.05
2023-05-23T19:05:29.662Z,14.02
2023-05-23T19:07:57.366Z,13.78
2023-05-23T19:10:24.576Z,13.88
2023-05-23T19:12:52.027Z,13.77
2023-05-23T19:15:19.623Z,13.70
2023-05-23T19:17:47.568Z,14.01
2023-05-23T19:20:18.650Z,14.03
2023-05-23T19:22:52.298Z,14.05
2023-05-23T19:25:21.303Z,13.84
2023-05-23T19:27:48.935Z,12.82
2023-05-23T19:30:16.461Z,13.79
2023-05-23T19:32:44.063Z,13.84
2023-05-23T19:35:12.757Z,13.63
2023-05-23T19:37:42.052Z,13.82
2023-05-23T19:40:10.011Z,13.71
2023-05-23T19:42:37.094Z,13.26
2023-05-23T19:45:04.585Z,13.30
2023-05-23T19:47:32.631Z,13.71
2023-05-23T19:49:59.771Z,13.45
2023-05-23T19:52:26.872Z,13.32
2023-05-23T19:54:54.104Z,13.44
2023-05-23T19:57:21.358Z,13.28
2023-05-23T19:59:48.571Z,12.87
2023-05-23T20:02:15.681Z,13.55
2023-05-23T20:04:42.897Z,13.47
2023-05-23T20:07:10.127Z,13.18
2023-05-23T20:09:37.608Z,13.40
2023-05-23T20:12:04.995Z,13.18
2023-05-23T20:14:32.824Z,13.35
2023-05-23T20:17:00.146Z,13.41
2023-05-23T20:19:27.376Z,12.79
2023-05-23T20:21:54.504Z,12.70
2023-05-23T20:24:21.864Z,13.17
2023-05-23T20:26:49.149Z,13.25
2023-05-23T20:29:16.275Z,13.17
2023-05-23T20:31:43.533Z,13.07
2023-05-23T20:34:10.852Z,12.83
2023-05-23T20:36:38.092Z,12.89
2023-05-23T20:39:05.756Z,13.04
2023-05-23T20:41:33.438Z,12.88
2023-05-23T20:44:01.777Z,12.90
2023-05-23T20:46:29.236Z,12.90
2023-05-23T20:48:58.086Z,12.78
2023-05-23T20:51:25.298Z,12.57
2023-05-23T20:53:53.437Z,12.84
2023-05-23T20:56:21.172Z,12.99
2023-05-23T20:58:48.532Z,12.33
2023-05-23T21:01:15.726Z,12.29
2023-05-23T21:03:42.937Z,12.40
2023-05-23T21:06:10.186Z,13.02
2023-05-23T21:08:37.565Z,12.75
2023-05-23T21:11:04.957Z,12.01
2023-05-23T21:13:32.251Z,12.09
2023-05-23T21:15:59.456Z,12.19
2023-05-23T21:18:26.587Z,12.64
2023-05-23T21:20:53.712Z,12.38
2023-05-23T21:23:20.890Z,12.11
2023-05-23T21:25:47.961Z,12.15
2023-05-23T21:28:15.174Z,12.30
2023-05-23T21:30:42.906Z,12.30
2023-05-23T21:33:10.509Z,12.24
2023-05-23T21:35:38.087Z,11.78
2023-05-23T21:38:05.233Z,12.24
2023-05-23T21:40:32.279Z,12.09
2023-05-23T21:42:59.551Z,11.73
2023-05-23T21:45:26.629Z,11.54
2023-05-23T21:47:53.881Z,12.24
2023-05-23T21:50:20.957Z,12.08
2023-05-23T21:52:48.050Z,11.80
2023-05-23T21:55:15.221Z,12.10
2023-05-23T21:57:42.584Z,12.04
2023-05-23T22:00:13.338Z,11.39
2023-05-23T22:02:41.183Z,11.63
2023-05-23T22:05:09.043Z,10.73
2023-05-23T22:07:36.213Z,11.83
2023-05-23T22:10:03.303Z,11.74
2023-05-23T22:12:30.432Z,11.93
2023-05-23T22:14:57.466Z,11.86
2023-05-23T22:17:26.588Z,11.49
2023-05-23T22:19:53.942Z,11.93
2023-05-23T22:22:21.119Z,11.77
2023-05-23T22:24:48.373Z,11.52
2023-05-23T22:27:15.330Z,11.86
2023-05-23T22:29:42.558Z,10.82
2023-05-23T22:32:09.781Z,11.51
2023-05-23T22:34:37.075Z,11.85
2023-05-23T22:37:04.436Z,11.72
2023-05-23T22:39:31.723Z,11.38
2023-05-23T22:41:58.843Z,11.78
2023-05-23T22:44:26.490Z,11.55
2023-05-23T22:46:53.691Z,11.14
2023-05-23T22:49:25.375Z,11.55
2023-05-23T22:51:52.505Z,11.28
2023-05-23T22:54:19.599Z,11.67
2023-05-23T22:56:46.697Z,11.31
2023-05-23T22:59:13.825Z,11.66
2023-05-23T23:01:41.068Z,11.32
2023-05-23T23:04:09.531Z,11.00
2023-05-23T23:06:36.766Z,10.88
2023-05-23T23:09:05.454Z,11.65
2023-05-23T23:11:32.911Z,11.65
2023-05-23T23:14:00.249Z,10.18
2023-05-23T23:16:27.471Z,11.07
2023-05-23T23:18:54.918Z,11.11
2023-05-23T23:21:22.167Z,11.15
2023-05-23T23:23:50.037Z,10.70
2023-05-23T23:26:17.398Z,11.21
2023-05-23T23:28:44.515Z,11.50
2023-05-23T23:31:11.762Z,10.93
2023-05-23T23:33:39.047Z,10.76
2023-05-23T23:36:06.602Z,11.29
2023-05-23T23:38:33.862Z,10.84
2023-05-23T23:41:00.972Z,11.46
2023-05-23T23:43:28.156Z,11.05
2023-05-23T23:45:55.370Z,10.90
2023-05-23T23:48:22.521Z,11.24
2023-05-23T23:50:49.690Z,10.99
2023-05-23T23:53:17.142Z,10.56
2023-05-23T23:55:44.456Z,11.16
2023-05-23T23:58:11.496Z,10.94
